Frontenac, New York
Current Conditions -  °F | °C
As of 9:56 AM on Sunday 21 Dec 2014 (Local Time) from KART Reporting Station
Overcast Overcast  
Wind Chill: 29°   Ceiling: 2700
Heat Index: 29°   Visibility: 10mi
Dew Point: 21°   Wind: 3mph
Humidity: 72%   Direction: 60°ENE
Pressure: 30.34"   Gusts: NA
Location:  44.1926°N, 76.1112°W
Report Text: KART 211456Z AUTO 06003KT 10SM OVC027 M02/M06 A3034 RMK AO2 SLP282 T10171061 53012
Loading
Personal Weather Stations






























Interactive Weather Map New forecast layout! Learn more

10-Day Weather Forecast

Advertisements
Track Severe Weather on mobile